sensor_id;sensor_type;location;lat;lon;timestamp;P1;durP1;ratioP1;P2;durP2;ratioP2
40116;SDS011;25829;50.228;18.936;2024-02-28T00:01:37;45.65;;;30.63;;
40116;SDS011;25829;50.228;18.936;2024-02-28T00:04:39;49.40;;;32.15;;
40116;SDS011;25829;50.228;18.936;2024-02-28T00:07:40;52.03;;;32.72;;
40116;SDS011;25829;50.228;18.936;2024-02-28T00:10:41;49.92;;;31.73;;
40116;SDS011;25829;50.228;18.936;2024-02-28T00:13:42;50.78;;;31.27;;
40116;SDS011;25829;50.228;18.936;2024-02-28T00:23:37;45.05;;;30.67;;
40116;SDS011;25829;50.228;18.936;2024-02-28T00:26:41;46.60;;;31.45;;
40116;SDS011;25829;50.228;18.936;2024-02-28T00:29:42;48.55;;;32.13;;
40116;SDS011;25829;50.228;18.936;2024-02-28T00:32:43;45.95;;;31.17;;
40116;SDS011;25829;50.228;18.936;2024-02-28T00:35:44;53.15;;;33.30;;
40116;SDS011;25829;50.228;18.936;2024-02-28T00:38:45;52.80;;;32.80;;
40116;SDS011;25829;50.228;18.936;2024-02-28T00:41:45;48.22;;;32.58;;
40116;SDS011;25829;50.228;18.936;2024-02-28T00:44:46;56.33;;;34.50;;
40116;SDS011;25829;50.228;18.936;2024-02-28T00:47:47;57.17;;;32.95;;
40116;SDS011;25829;50.228;18.936;2024-02-28T00:50:49;53.80;;;34.03;;
40116;SDS011;25829;50.228;18.936;2024-02-28T00:53:50;52.55;;;33.03;;
40116;SDS011;25829;50.228;18.936;2024-02-28T00:56:51;48.43;;;31.43;;
40116;SDS011;25829;50.228;18.936;2024-02-28T00:59:52;52.37;;;33.60;;
40116;SDS011;25829;50.228;18.936;2024-02-28T01:02:54;47.00;;;32.27;;
40116;SDS011;25829;50.228;18.936;2024-02-28T01:05:56;47.70;;;31.63;;
40116;SDS011;25829;50.228;18.936;2024-02-28T01:08:56;47.27;;;32.50;;
40116;SDS011;25829;50.228;18.936;2024-02-28T01:11:57;50.07;;;30.87;;
40116;SDS011;25829;50.228;18.936;2024-02-28T01:14:58;53.00;;;32.80;;
40116;SDS011;25829;50.228;18.936;2024-02-28T01:17:59;50.20;;;32.67;;
40116;SDS011;25829;50.228;18.936;2024-02-28T01:21:00;48.37;;;32.57;;
40116;SDS011;25829;50.228;18.936;2024-02-28T01:24:01;53.00;;;33.95;;
40116;SDS011;25829;50.228;18.936;2024-02-28T01:27:01;52.05;;;34.35;;
40116;SDS011;25829;50.228;18.936;2024-02-28T01:30:03;49.33;;;31.97;;
40116;SDS011;25829;50.228;18.936;2024-02-28T01:33:04;45.20;;;31.97;;
40116;SDS011;25829;50.228;18.936;2024-02-28T01:36:08;48.67;;;31.33;;
40116;SDS011;25829;50.228;18.936;2024-02-28T01:39:09;51.78;;;34.33;;
40116;SDS011;25829;50.228;18.936;2024-02-28T01:42:10;49.30;;;34.38;;
40116;SDS011;25829;50.228;18.936;2024-02-28T01:45:12;56.20;;;34.97;;
40116;SDS011;25829;50.228;18.936;2024-02-28T01:48:14;56.88;;;36.05;;
40116;SDS011;25829;50.228;18.936;2024-02-28T01:51:15;56.07;;;34.53;;
40116;SDS011;25829;50.228;18.936;2024-02-28T01:54:16;56.45;;;33.67;;
40116;SDS011;25829;50.228;18.936;2024-02-28T01:57:18;57.13;;;34.08;;
40116;SDS011;25829;50.228;18.936;2024-02-28T02:00:19;51.20;;;32.37;;
40116;SDS011;25829;50.228;18.936;2024-02-28T02:03:22;42.50;;;29.02;;
40116;SDS011;25829;50.228;18.936;2024-02-28T02:06:23;49.77;;;30.87;;
40116;SDS011;25829;50.228;18.936;2024-02-28T02:09:24;45.53;;;30.48;;
40116;SDS011;25829;50.228;18.936;2024-02-28T02:12:26;46.60;;;29.73;;
40116;SDS011;25829;50.228;18.936;2024-02-28T02:15:27;48.00;;;30.65;;
40116;SDS011;25829;50.228;18.936;2024-02-28T02:18:29;50.43;;;31.53;;
40116;SDS011;25829;50.228;18.936;2024-02-28T02:21:30;50.93;;;31.00;;
40116;SDS011;25829;50.228;18.936;2024-02-28T02:24:34;45.20;;;30.40;;
40116;SDS011;25829;50.228;18.936;2024-02-28T02:27:35;48.83;;;31.83;;
40116;SDS011;25829;50.228;18.936;2024-02-28T02:30:37;46.57;;;30.13;;
40116;SDS011;25829;50.228;18.936;2024-02-28T02:33:38;51.17;;;31.40;;
40116;SDS011;25829;50.228;18.936;2024-02-28T02:36:39;47.60;;;31.13;;
40116;SDS011;25829;50.228;18.936;2024-02-28T02:39:40;45.90;;;31.30;;
40116;SDS011;25829;50.228;18.936;2024-02-28T02:42:40;48.05;;;31.33;;
40116;SDS011;25829;50.228;18.936;2024-02-28T02:45:41;47.30;;;31.53;;
40116;SDS011;25829;50.228;18.936;2024-02-28T02:48:43;45.87;;;31.50;;
40116;SDS011;25829;50.228;18.936;2024-02-28T02:51:44;49.30;;;32.83;;
40116;SDS011;25829;50.228;18.936;2024-02-28T02:54:45;46.47;;;31.90;;
40116;SDS011;25829;50.228;18.936;2024-02-28T03:00:56;55.20;;;33.50;;
40116;SDS011;25829;50.228;18.936;2024-02-28T03:03:57;49.53;;;32.10;;
40116;SDS011;25829;50.228;18.936;2024-02-28T03:06:57;49.50;;;31.07;;
40116;SDS011;25829;50.228;18.936;2024-02-28T03:09:58;47.53;;;30.67;;
40116;SDS011;25829;50.228;18.936;2024-02-28T03:12:59;49.30;;;31.67;;
40116;SDS011;25829;50.228;18.936;2024-02-28T03:16:03;48.43;;;31.47;;
40116;SDS011;25829;50.228;18.936;2024-02-28T03:19:04;48.65;;;31.73;;
40116;SDS011;25829;50.228;18.936;2024-02-28T03:22:05;57.00;;;35.53;;
40116;SDS011;25829;50.228;18.936;2024-02-28T03:25:06;60.83;;;36.20;;
40116;SDS011;25829;50.228;18.936;2024-02-28T03:28:07;60.15;;;37.17;;
40116;SDS011;25829;50.228;18.936;2024-02-28T03:31:08;62.20;;;37.23;;
40116;SDS011;25829;50.228;18.936;2024-02-28T03:34:09;59.90;;;35.15;;
40116;SDS011;25829;50.228;18.936;2024-02-28T03:37:10;57.13;;;32.60;;
40116;SDS011;25829;50.228;18.936;2024-02-28T03:40:11;46.80;;;30.80;;
40116;SDS011;25829;50.228;18.936;2024-02-28T03:43:12;52.63;;;31.00;;
40116;SDS011;25829;50.228;18.936;2024-02-28T03:46:13;51.47;;;31.30;;
40116;SDS011;25829;50.228;18.936;2024-02-28T03:49:14;55.17;;;32.63;;
40116;SDS011;25829;50.228;18.936;2024-02-28T03:52:15;56.73;;;31.93;;
40116;SDS011;25829;50.228;18.936;2024-02-28T03:55:15;47.43;;;30.43;;
40116;SDS011;25829;50.228;18.936;2024-02-28T03:58:16;45.53;;;30.33;;
40116;SDS011;25829;50.228;18.936;2024-02-28T04:01:17;48.63;;;31.40;;
40116;SDS011;25829;50.228;18.936;2024-02-28T04:04:18;48.17;;;29.37;;
40116;SDS011;25829;50.228;18.936;2024-02-28T04:07:19;44.33;;;29.83;;
40116;SDS011;25829;50.228;18.936;2024-02-28T04:10:19;42.13;;;28.27;;
40116;SDS011;25829;50.228;18.936;2024-02-28T04:13:20;48.13;;;29.05;;
40116;SDS011;25829;50.228;18.936;2024-02-28T04:16:21;46.70;;;29.93;;
40116;SDS011;25829;50.228;18.936;2024-02-28T04:19:22;46.30;;;31.00;;
40116;SDS011;25829;50.228;18.936;2024-02-28T04:22:22;42.95;;;29.70;;
40116;SDS011;25829;50.228;18.936;2024-02-28T04:28:47;43.40;;;29.75;;
40116;SDS011;25829;50.228;18.936;2024-02-28T04:31:47;42.55;;;29.33;;
40116;SDS011;25829;50.228;18.936;2024-02-28T04:34:48;50.47;;;31.03;;
40116;SDS011;25829;50.228;18.936;2024-02-28T04:37:49;47.47;;;29.93;;
40116;SDS011;25829;50.228;18.936;2024-02-28T04:40:50;47.80;;;29.23;;
40116;SDS011;25829;50.228;18.936;2024-02-28T04:43:50;41.25;;;28.35;;
40116;SDS011;25829;50.228;18.936;2024-02-28T04:46:51;52.28;;;31.38;;
40116;SDS011;25829;50.228;18.936;2024-02-28T04:49:52;49.57;;;31.80;;
40116;SDS011;25829;50.228;18.936;2024-02-28T04:52:52;45.78;;;29.75;;
40116;SDS011;25829;50.228;18.936;2024-02-28T04:55:53;50.33;;;31.87;;
40116;SDS011;25829;50.228;18.936;2024-02-28T04:58:54;44.87;;;31.50;;
40116;SDS011;25829;50.228;18.936;2024-02-28T05:01:55;50.77;;;30.63;;
40116;SDS011;25829;50.228;18.936;2024-02-28T05:04:56;47.47;;;31.03;;
40116;SDS011;25829;50.228;18.936;2024-02-28T05:07:58;49.42;;;31.33;;
40116;SDS011;25829;50.228;18.936;2024-02-28T05:10:59;50.10;;;30.57;;
40116;SDS011;25829;50.228;18.936;2024-02-28T05:14:00;70.40;;;42.10;;
40116;SDS011;25829;50.228;18.936;2024-02-28T05:17:03;77.75;;;46.15;;
40116;SDS011;25829;50.228;18.936;2024-02-28T05:20:04;70.65;;;43.03;;
40116;SDS011;25829;50.228;18.936;2024-02-28T05:23:05;70.28;;;42.58;;
40116;SDS011;25829;50.228;18.936;2024-02-28T05:26:06;66.07;;;40.17;;
40116;SDS011;25829;50.228;18.936;2024-02-28T05:29:07;60.92;;;40.78;;
40116;SDS011;25829;50.228;18.936;2024-02-28T05:32:08;57.60;;;39.00;;
40116;SDS011;25829;50.228;18.936;2024-02-28T05:35:09;61.50;;;37.63;;
40116;SDS011;25829;50.228;18.936;2024-02-28T05:38:11;58.70;;;38.00;;
40116;SDS011;25829;50.228;18.936;2024-02-28T05:41:12;56.78;;;36.42;;
40116;SDS011;25829;50.228;18.936;2024-02-28T05:44:14;58.40;;;37.03;;
40116;SDS011;25829;50.228;18.936;2024-02-28T05:47:14;57.90;;;36.10;;
40116;SDS011;25829;50.228;18.936;2024-02-28T05:50:15;62.47;;;37.67;;
40116;SDS011;25829;50.228;18.936;2024-02-28T05:53:16;53.63;;;34.85;;
40116;SDS011;25829;50.228;18.936;2024-02-28T05:56:17;58.15;;;35.65;;
40116;SDS011;25829;50.228;18.936;2024-02-28T05:59:20;57.23;;;34.13;;
40116;SDS011;25829;50.228;18.936;2024-02-28T06:02:20;59.73;;;36.20;;
40116;SDS011;25829;50.228;18.936;2024-02-28T06:05:21;47.23;;;32.17;;
40116;SDS011;25829;50.228;18.936;2024-02-28T06:08:22;60.70;;;37.37;;
40116;SDS011;25829;50.228;18.936;2024-02-28T06:11:23;56.83;;;34.37;;
40116;SDS011;25829;50.228;18.936;2024-02-28T06:14:23;60.17;;;36.00;;
40116;SDS011;25829;50.228;18.936;2024-02-28T06:17:24;49.50;;;33.15;;
40116;SDS011;25829;50.228;18.936;2024-02-28T06:20:25;60.90;;;37.50;;
40116;SDS011;25829;50.228;18.936;2024-02-28T06:23:25;53.53;;;35.97;;
40116;SDS011;25829;50.228;18.936;2024-02-28T06:26:26;54.70;;;35.53;;
40116;SDS011;25829;50.228;18.936;2024-02-28T06:29:27;55.87;;;34.47;;
40116;SDS011;25829;50.228;18.936;2024-02-28T06:32:28;51.73;;;34.20;;
40116;SDS011;25829;50.228;18.936;2024-02-28T06:35:29;54.60;;;34.70;;
40116;SDS011;25829;50.228;18.936;2024-02-28T06:38:29;49.33;;;34.05;;
40116;SDS011;25829;50.228;18.936;2024-02-28T06:41:30;52.38;;;33.17;;
40116;SDS011;25829;50.228;18.936;2024-02-28T06:44:31;52.33;;;34.07;;
40116;SDS011;25829;50.228;18.936;2024-02-28T06:47:32;54.50;;;34.55;;
40116;SDS011;25829;50.228;18.936;2024-02-28T06:50:33;52.95;;;34.75;;
40116;SDS011;25829;50.228;18.936;2024-02-28T06:53:33;54.10;;;35.17;;
40116;SDS011;25829;50.228;18.936;2024-02-28T06:56:34;55.83;;;35.60;;
40116;SDS011;25829;50.228;18.936;2024-02-28T06:59:35;59.78;;;36.90;;
40116;SDS011;25829;50.228;18.936;2024-02-28T07:02:36;60.42;;;36.65;;
40116;SDS011;25829;50.228;18.936;2024-02-28T07:05:36;69.85;;;40.08;;
40116;SDS011;25829;50.228;18.936;2024-02-28T07:08:37;68.57;;;41.60;;
40116;SDS011;25829;50.228;18.936;2024-02-28T07:11:38;69.57;;;42.65;;
40116;SDS011;25829;50.228;18.936;2024-02-28T07:14:39;66.57;;;42.38;;
40116;SDS011;25829;50.228;18.936;2024-02-28T07:17:40;82.68;;;47.67;;
40116;SDS011;25829;50.228;18.936;2024-02-28T07:20:40;67.90;;;44.08;;
40116;SDS011;25829;50.228;18.936;2024-02-28T07:23:41;69.88;;;44.35;;
40116;SDS011;25829;50.228;18.936;2024-02-28T07:26:42;73.25;;;46.05;;
40116;SDS011;25829;50.228;18.936;2024-02-28T07:29:43;68.53;;;45.93;;
40116;SDS011;25829;50.228;18.936;2024-02-28T07:32:44;74.38;;;45.70;;
40116;SDS011;25829;50.228;18.936;2024-02-28T07:35:45;71.60;;;46.08;;
40116;SDS011;25829;50.228;18.936;2024-02-28T07:38:50;75.05;;;46.58;;
40116;SDS011;25829;50.228;18.936;2024-02-28T07:41:53;78.18;;;48.38;;
40116;SDS011;25829;50.228;18.936;2024-02-28T07:44:54;74.93;;;46.60;;
40116;SDS011;25829;50.228;18.936;2024-02-28T07:47:57;71.93;;;45.47;;
40116;SDS011;25829;50.228;18.936;2024-02-28T07:50:58;88.05;;;49.50;;
40116;SDS011;25829;50.228;18.936;2024-02-28T07:53:58;73.88;;;46.35;;
40116;SDS011;25829;50.228;18.936;2024-02-28T07:56:59;73.30;;;44.77;;
40116;SDS011;25829;50.228;18.936;2024-02-28T08:00:00;78.33;;;45.33;;
40116;SDS011;25829;50.228;18.936;2024-02-28T08:03:01;76.87;;;45.20;;
40116;SDS011;25829;50.228;18.936;2024-02-28T08:06:02;71.63;;;45.33;;
40116;SDS011;25829;50.228;18.936;2024-02-28T08:09:03;78.57;;;44.97;;
40116;SDS011;25829;50.228;18.936;2024-02-28T08:12:05;76.72;;;45.00;;
40116;SDS011;25829;50.228;18.936;2024-02-28T08:15:06;73.10;;;44.33;;
40116;SDS011;25829;50.228;18.936;2024-02-28T08:18:07;69.57;;;44.43;;
40116;SDS011;25829;50.228;18.936;2024-02-28T08:21:08;72.50;;;43.75;;
40116;SDS011;25829;50.228;18.936;2024-02-28T08:24:09;75.10;;;43.97;;
40116;SDS011;25829;50.228;18.936;2024-02-28T08:27:10;79.53;;;44.67;;
40116;SDS011;25829;50.228;18.936;2024-02-28T08:30:11;77.90;;;44.70;;
40116;SDS011;25829;50.228;18.936;2024-02-28T08:36:18;83.60;;;48.97;;
40116;SDS011;25829;50.228;18.936;2024-02-28T08:39:19;75.72;;;46.22;;
40116;SDS011;25829;50.228;18.936;2024-02-28T08:42:20;80.18;;;47.38;;
40116;SDS011;25829;50.228;18.936;2024-02-28T08:45:22;76.05;;;46.72;;
40116;SDS011;25829;50.228;18.936;2024-02-28T08:48:23;82.30;;;47.05;;
40116;SDS011;25829;50.228;18.936;2024-02-28T08:51:23;77.07;;;44.75;;
40116;SDS011;25829;50.228;18.936;2024-02-28T08:54:24;82.63;;;46.42;;
40116;SDS011;25829;50.228;18.936;2024-02-28T08:57:26;94.93;;;52.75;;
40116;SDS011;25829;50.228;18.936;2024-02-28T09:00:26;80.57;;;46.40;;
40116;SDS011;25829;50.228;18.936;2024-02-28T09:03:27;78.00;;;45.83;;
40116;SDS011;25829;50.228;18.936;2024-02-28T09:06:28;72.78;;;44.35;;
40116;SDS011;25829;50.228;18.936;2024-02-28T09:09:29;68.20;;;42.22;;
40116;SDS011;25829;50.228;18.936;2024-02-28T09:12:32;73.80;;;43.92;;
40116;SDS011;25829;50.228;18.936;2024-02-28T09:15:33;67.97;;;42.35;;
40116;SDS011;25829;50.228;18.936;2024-02-28T09:18:34;71.43;;;44.30;;
40116;SDS011;25829;50.228;18.936;2024-02-28T09:21:35;70.35;;;44.45;;
40116;SDS011;25829;50.228;18.936;2024-02-28T09:24:37;66.63;;;41.80;;
40116;SDS011;25829;50.228;18.936;2024-02-28T09:27:37;67.13;;;40.72;;
40116;SDS011;25829;50.228;18.936;2024-02-28T09:30:38;63.20;;;40.15;;
40116;SDS011;25829;50.228;18.936;2024-02-28T09:33:39;68.45;;;41.30;;
40116;SDS011;25829;50.228;18.936;2024-02-28T09:36:41;63.00;;;40.53;;
40116;SDS011;25829;50.228;18.936;2024-02-28T09:39:42;68.93;;;41.08;;
40116;SDS011;25829;50.228;18.936;2024-02-28T09:42:47;64.50;;;40.55;;
40116;SDS011;25829;50.228;18.936;2024-02-28T09:46:03;65.63;;;41.35;;
40116;SDS011;25829;50.228;18.936;2024-02-28T09:49:05;68.85;;;40.70;;
40116;SDS011;25829;50.228;18.936;2024-02-28T09:52:06;66.38;;;41.20;;
40116;SDS011;25829;50.228;18.936;2024-02-28T09:55:07;71.57;;;40.00;;
40116;SDS011;25829;50.228;18.936;2024-02-28T09:58:08;71.38;;;39.97;;
40116;SDS011;25829;50.228;18.936;2024-02-28T10:01:09;76.22;;;41.45;;
40116;SDS011;25829;50.228;18.936;2024-02-28T10:04:12;71.93;;;43.63;;
40116;SDS011;25829;50.228;18.936;2024-02-28T10:07:14;65.15;;;41.45;;
40116;SDS011;25829;50.228;18.936;2024-02-28T10:10:14;70.95;;;43.78;;
40116;SDS011;25829;50.228;18.936;2024-02-28T10:13:17;75.43;;;42.47;;
40116;SDS011;25829;50.228;18.936;2024-02-28T10:16:18;73.15;;;43.08;;
40116;SDS011;25829;50.228;18.936;2024-02-28T10:19:18;71.25;;;43.90;;
40116;SDS011;25829;50.228;18.936;2024-02-28T10:22:19;71.38;;;41.45;;
40116;SDS011;25829;50.228;18.936;2024-02-28T10:29:06;74.72;;;42.70;;
40116;SDS011;25829;50.228;18.936;2024-02-28T10:35:45;74.28;;;42.60;;
40116;SDS011;25829;50.228;18.936;2024-02-28T10:38:52;74.72;;;42.85;;
40116;SDS011;25829;50.228;18.936;2024-02-28T10:41:53;80.55;;;45.03;;
40116;SDS011;25829;50.228;18.936;2024-02-28T10:44:56;80.82;;;46.92;;
40116;SDS011;25829;50.228;18.936;2024-02-28T10:47:58;84.75;;;44.90;;
40116;SDS011;25829;50.228;18.936;2024-02-28T10:51:00;91.20;;;47.78;;
40116;SDS011;25829;50.228;18.936;2024-02-28T10:57:05;91.70;;;50.65;;
40116;SDS011;25829;50.228;18.936;2024-02-28T11:00:06;96.60;;;48.38;;
40116;SDS011;25829;50.228;18.936;2024-02-28T11:03:08;88.72;;;48.10;;
40116;SDS011;25829;50.228;18.936;2024-02-28T11:06:19;92.18;;;48.03;;
40116;SDS011;25829;50.228;18.936;2024-02-28T11:09:22;79.47;;;46.80;;
40116;SDS011;25829;50.228;18.936;2024-02-28T11:12:24;82.93;;;44.58;;
40116;SDS011;25829;50.228;18.936;2024-02-28T11:15:26;86.55;;;46.00;;
40116;SDS011;25829;50.228;18.936;2024-02-28T11:21:56;85.13;;;44.10;;
40116;SDS011;25829;50.228;18.936;2024-02-28T11:24:57;88.05;;;44.90;;
40116;SDS011;25829;50.228;18.936;2024-02-28T11:27:58;80.47;;;43.83;;
40116;SDS011;25829;50.228;18.936;2024-02-28T11:30:59;83.43;;;45.10;;
40116;SDS011;25829;50.228;18.936;2024-02-28T11:34:00;85.15;;;45.10;;
40116;SDS011;25829;50.228;18.936;2024-02-28T11:37:01;80.03;;;44.00;;
40116;SDS011;25829;50.228;18.936;2024-02-28T11:40:03;77.60;;;41.65;;
40116;SDS011;25829;50.228;18.936;2024-02-28T11:43:09;72.40;;;42.50;;
40116;SDS011;25829;50.228;18.936;2024-02-28T11:46:09;68.18;;;41.30;;
40116;SDS011;25829;50.228;18.936;2024-02-28T11:49:11;72.70;;;41.45;;
40116;SDS011;25829;50.228;18.936;2024-02-28T11:52:15;78.57;;;44.60;;
40116;SDS011;25829;50.228;18.936;2024-02-28T11:55:16;69.18;;;41.83;;
40116;SDS011;25829;50.228;18.936;2024-02-28T11:58:17;75.03;;;41.58;;
40116;SDS011;25829;50.228;18.936;2024-02-28T12:01:18;76.88;;;42.83;;
40116;SDS011;25829;50.228;18.936;2024-02-28T12:04:19;77.10;;;41.53;;
40116;SDS011;25829;50.228;18.936;2024-02-28T12:07:20;76.22;;;42.10;;
40116;SDS011;25829;50.228;18.936;2024-02-28T12:10:21;77.00;;;43.00;;
40116;SDS011;25829;50.228;18.936;2024-02-28T12:13:23;73.20;;;42.38;;
40116;SDS011;25829;50.228;18.936;2024-02-28T12:16:24;78.57;;;43.05;;
40116;SDS011;25829;50.228;18.936;2024-02-28T12:19:25;79.60;;;42.70;;
40116;SDS011;25829;50.228;18.936;2024-02-28T12:22:26;84.93;;;43.90;;
40116;SDS011;25829;50.228;18.936;2024-02-28T12:25:27;80.68;;;43.08;;
40116;SDS011;25829;50.228;18.936;2024-02-28T12:28:28;78.03;;;41.60;;
40116;SDS011;25829;50.228;18.936;2024-02-28T12:31:31;75.97;;;40.10;;
40116;SDS011;25829;50.228;18.936;2024-02-28T12:34:31;70.20;;;40.25;;
40116;SDS011;25829;50.228;18.936;2024-02-28T12:37:32;73.20;;;41.70;;
40116;SDS011;25829;50.228;18.936;2024-02-28T12:40:33;68.70;;;40.00;;
40116;SDS011;25829;50.228;18.936;2024-02-28T12:43:33;68.43;;;39.42;;
40116;SDS011;25829;50.228;18.936;2024-02-28T12:46:34;68.95;;;40.08;;
40116;SDS011;25829;50.228;18.936;2024-02-28T12:49:35;68.53;;;40.42;;
40116;SDS011;25829;50.228;18.936;2024-02-28T12:52:36;69.10;;;38.67;;
40116;SDS011;25829;50.228;18.936;2024-02-28T12:55:37;66.18;;;39.22;;
40116;SDS011;25829;50.228;18.936;2024-02-28T12:58:37;65.05;;;38.33;;
40116;SDS011;25829;50.228;18.936;2024-02-28T13:01:38;66.35;;;39.50;;
40116;SDS011;25829;50.228;18.936;2024-02-28T13:04:39;71.82;;;40.92;;
40116;SDS011;25829;50.228;18.936;2024-02-28T13:07:40;69.00;;;39.13;;
40116;SDS011;25829;50.228;18.936;2024-02-28T13:10:41;68.10;;;38.83;;
40116;SDS011;25829;50.228;18.936;2024-02-28T13:13:42;64.18;;;39.28;;
40116;SDS011;25829;50.228;18.936;2024-02-28T13:16:42;63.90;;;38.08;;
40116;SDS011;25829;50.228;18.936;2024-02-28T13:19:46;61.20;;;36.58;;
40116;SDS011;25829;50.228;18.936;2024-02-28T13:22:46;71.30;;;37.80;;
40116;SDS011;25829;50.228;18.936;2024-02-28T13:25:47;62.92;;;37.75;;
40116;SDS011;25829;50.228;18.936;2024-02-28T13:28:49;65.43;;;36.80;;
40116;SDS011;25829;50.228;18.936;2024-02-28T13:31:50;59.83;;;36.85;;
40116;SDS011;25829;50.228;18.936;2024-02-28T13:34:51;59.97;;;36.72;;
40116;SDS011;25829;50.228;18.936;2024-02-28T13:45:50;61.50;;;35.75;;
40116;SDS011;25829;50.228;18.936;2024-02-28T13:48:51;60.33;;;36.65;;
40116;SDS011;25829;50.228;18.936;2024-02-28T13:55:15;63.45;;;35.78;;
40116;SDS011;25829;50.228;18.936;2024-02-28T14:02:42;58.22;;;35.53;;
40116;SDS011;25829;50.228;18.936;2024-02-28T14:05:42;64.60;;;37.92;;
40116;SDS011;25829;50.228;18.936;2024-02-28T14:08:43;61.13;;;37.03;;
40116;SDS011;25829;50.228;18.936;2024-02-28T14:11:44;61.38;;;35.92;;
40116;SDS011;25829;50.228;18.936;2024-02-28T14:14:45;58.80;;;33.25;;
40116;SDS011;25829;50.228;18.936;2024-02-28T14:17:46;54.08;;;31.23;;
40116;SDS011;25829;50.228;18.936;2024-02-28T14:20:47;53.88;;;30.48;;
40116;SDS011;25829;50.228;18.936;2024-02-28T14:23:49;45.05;;;28.85;;
40116;SDS011;25829;50.228;18.936;2024-02-28T14:26:50;51.00;;;30.67;;
40116;SDS011;25829;50.228;18.936;2024-02-28T14:29:50;52.05;;;30.15;;
40116;SDS011;25829;50.228;18.936;2024-02-28T14:32:51;47.40;;;29.67;;
40116;SDS011;25829;50.228;18.936;2024-02-28T14:35:52;51.75;;;30.48;;
40116;SDS011;25829;50.228;18.936;2024-02-28T14:38:54;59.42;;;34.55;;
40116;SDS011;25829;50.228;18.936;2024-02-28T14:41:54;64.05;;;35.42;;
40116;SDS011;25829;50.228;18.936;2024-02-28T14:44:55;63.55;;;34.67;;
40116;SDS011;25829;50.228;18.936;2024-02-28T14:47:56;59.17;;;33.40;;
40116;SDS011;25829;50.228;18.936;2024-02-28T14:50:57;59.40;;;33.30;;
40116;SDS011;25829;50.228;18.936;2024-02-28T14:53:58;61.42;;;35.88;;
40116;SDS011;25829;50.228;18.936;2024-02-28T14:57:00;63.17;;;38.20;;
40116;SDS011;25829;50.228;18.936;2024-02-28T15:00:01;63.97;;;35.95;;
40116;SDS011;25829;50.228;18.936;2024-02-28T15:03:07;59.72;;;34.70;;
40116;SDS011;25829;50.228;18.936;2024-02-28T15:06:08;72.77;;;39.10;;
40116;SDS011;25829;50.228;18.936;2024-02-28T15:09:09;66.50;;;37.87;;
40116;SDS011;25829;50.228;18.936;2024-02-28T15:12:10;74.22;;;39.15;;
40116;SDS011;25829;50.228;18.936;2024-02-28T15:15:11;63.38;;;36.00;;
40116;SDS011;25829;50.228;18.936;2024-02-28T15:18:12;61.83;;;36.20;;
40116;SDS011;25829;50.228;18.936;2024-02-28T15:21:12;55.97;;;34.08;;
40116;SDS011;25829;50.228;18.936;2024-02-28T15:24:13;64.05;;;36.90;;
40116;SDS011;25829;50.228;18.936;2024-02-28T15:30:45;56.03;;;32.90;;
40116;SDS011;25829;50.228;18.936;2024-02-28T15:33:48;59.00;;;34.47;;
40116;SDS011;25829;50.228;18.936;2024-02-28T15:36:49;53.57;;;31.47;;
40116;SDS011;25829;50.228;18.936;2024-02-28T15:39:50;50.33;;;29.90;;
40116;SDS011;25829;50.228;18.936;2024-02-28T15:42:51;44.70;;;27.30;;
40116;SDS011;25829;50.228;18.936;2024-02-28T15:45:51;41.42;;;25.80;;
40116;SDS011;25829;50.228;18.936;2024-02-28T15:48:52;45.53;;;26.38;;
40116;SDS011;25829;50.228;18.936;2024-02-28T15:51:53;38.83;;;24.10;;
40116;SDS011;25829;50.228;18.936;2024-02-28T15:54:57;37.92;;;24.30;;
40116;SDS011;25829;50.228;18.936;2024-02-28T15:58:36;46.07;;;23.83;;
40116;SDS011;25829;50.228;18.936;2024-02-28T16:01:37;46.53;;;24.63;;
40116;SDS011;25829;50.228;18.936;2024-02-28T16:04:39;44.27;;;25.53;;
40116;SDS011;25829;50.228;18.936;2024-02-28T16:07:40;43.40;;;24.17;;
40116;SDS011;25829;50.228;18.936;2024-02-28T16:10:42;44.83;;;24.73;;
40116;SDS011;25829;50.228;18.936;2024-02-28T16:13:43;43.60;;;24.83;;
40116;SDS011;25829;50.228;18.936;2024-02-28T16:16:48;41.03;;;22.90;;
40116;SDS011;25829;50.228;18.936;2024-02-28T16:19:49;44.83;;;25.37;;
40116;SDS011;25829;50.228;18.936;2024-02-28T16:22:50;50.20;;;25.37;;
40116;SDS011;25829;50.228;18.936;2024-02-28T16:25:54;44.00;;;24.93;;
40116;SDS011;25829;50.228;18.936;2024-02-28T16:28:58;41.67;;;23.07;;
40116;SDS011;25829;50.228;18.936;2024-02-28T16:31:59;39.33;;;22.77;;
40116;SDS011;25829;50.228;18.936;2024-02-28T16:35:00;41.20;;;23.93;;
40116;SDS011;25829;50.228;18.936;2024-02-28T16:38:01;45.07;;;25.00;;
40116;SDS011;25829;50.228;18.936;2024-02-28T16:41:01;39.50;;;23.70;;
40116;SDS011;25829;50.228;18.936;2024-02-28T16:44:03;38.70;;;23.93;;
40116;SDS011;25829;50.228;18.936;2024-02-28T16:47:04;43.57;;;25.53;;
40116;SDS011;25829;50.228;18.936;2024-02-28T16:50:05;39.00;;;24.50;;
40116;SDS011;25829;50.228;18.936;2024-02-28T16:53:05;48.63;;;24.53;;
40116;SDS011;25829;50.228;18.936;2024-02-28T16:56:06;42.57;;;24.10;;
40116;SDS011;25829;50.228;18.936;2024-02-28T16:59:07;42.57;;;23.47;;
40116;SDS011;25829;50.228;18.936;2024-02-28T17:02:10;40.00;;;23.27;;
40116;SDS011;25829;50.228;18.936;2024-02-28T17:05:10;43.63;;;24.50;;
40116;SDS011;25829;50.228;18.936;2024-02-28T17:08:14;44.27;;;25.53;;
40116;SDS011;25829;50.228;18.936;2024-02-28T17:11:17;43.50;;;24.00;;
40116;SDS011;25829;50.228;18.936;2024-02-28T17:14:17;46.10;;;24.87;;
40116;SDS011;25829;50.228;18.936;2024-02-28T17:17:19;43.60;;;23.93;;
40116;SDS011;25829;50.228;18.936;2024-02-28T17:20:20;43.30;;;24.60;;
40116;SDS011;25829;50.228;18.936;2024-02-28T17:23:21;46.30;;;24.57;;
40116;SDS011;25829;50.228;18.936;2024-02-28T17:26:24;41.80;;;24.30;;
40116;SDS011;25829;50.228;18.936;2024-02-28T17:29:27;40.73;;;23.80;;
40116;SDS011;25829;50.228;18.936;2024-02-28T17:32:32;41.73;;;22.70;;
40116;SDS011;25829;50.228;18.936;2024-02-28T17:35:33;38.27;;;22.20;;
40116;SDS011;25829;50.228;18.936;2024-02-28T17:38:34;37.50;;;23.17;;
40116;SDS011;25829;50.228;18.936;2024-02-28T17:41:35;39.17;;;22.17;;
40116;SDS011;25829;50.228;18.936;2024-02-28T17:44:37;41.40;;;22.23;;
40116;SDS011;25829;50.228;18.936;2024-02-28T17:47:38;39.20;;;22.77;;
40116;SDS011;25829;50.228;18.936;2024-02-28T17:50:39;41.13;;;22.73;;
40116;SDS011;25829;50.228;18.936;2024-02-28T17:53:42;44.00;;;23.10;;
40116;SDS011;25829;50.228;18.936;2024-02-28T17:56:43;39.47;;;22.40;;
40116;SDS011;25829;50.228;18.936;2024-02-28T17:59:43;37.90;;;20.57;;
40116;SDS011;25829;50.228;18.936;2024-02-28T18:02:44;38.80;;;22.40;;
40116;SDS011;25829;50.228;18.936;2024-02-28T18:05:45;41.43;;;21.90;;
40116;SDS011;25829;50.228;18.936;2024-02-28T18:08:46;33.13;;;20.37;;
40116;SDS011;25829;50.228;18.936;2024-02-28T18:11:47;39.43;;;21.80;;
40116;SDS011;25829;50.228;18.936;2024-02-28T18:14:48;34.93;;;20.83;;